sensor_id;sensor_type;location;lat;lon;timestamp;P1;P2;P0
73825;PMS5003;64145;55.060;73.168;2024-01-10T00:01:22;0.00;0.00;0.00
73825;PMS5003;64145;55.060;73.168;2024-01-10T00:03:52;0.00;0.00;0.00
73825;PMS5003;64145;55.060;73.168;2024-01-10T00:06:18;0.00;0.00;0.00
73825;PMS5003;64145;55.060;73.168;2024-01-10T00:08:43;0.00;0.00;0.00
73825;PMS5003;64145;55.060;73.168;2024-01-10T00:11:09;1.00;1.00;1.00
73825;PMS5003;64145;55.060;73.168;2024-01-10T00:13:35;1.00;1.00;0.00
73825;PMS5003;64145;55.060;73.168;2024-01-10T00:16:00;0.00;0.00;0.00
73825;PMS5003;64145;55.060;73.168;2024-01-10T00:18:26;0.00;0.00;0.00
73825;PMS5003;64145;55.060;73.168;2024-01-10T00:20:54;0.00;0.00;0.00
73825;PMS5003;64145;55.060;73.168;2024-01-10T00:23:20;0.00;0.00;0.00
73825;PMS5003;64145;55.060;73.168;2024-01-10T00:25:46;0.00;0.00;0.00
73825;PMS5003;64145;55.060;73.168;2024-01-10T00:28:11;0.00;0.00;0.00
73825;PMS5003;64145;55.060;73.168;2024-01-10T00:30:37;0.00;0.00;0.00
73825;PMS5003;64145;55.060;73.168;2024-01-10T00:33:03;0.00;0.00;0.00
73825;PMS5003;64145;55.060;73.168;2024-01-10T00:35:29;0.00;0.00;0.00
73825;PMS5003;64145;55.060;73.168;2024-01-10T00:38:02;0.00;0.00;0.00
73825;PMS5003;64145;55.060;73.168;2024-01-10T00:40:28;0.00;0.00;0.00
73825;PMS5003;64145;55.060;73.168;2024-01-10T00:42:54;0.50;0.00;0.00
73825;PMS5003;64145;55.060;73.168;2024-01-10T00:45:19;1.00;0.67;0.00
73825;PMS5003;64145;55.060;73.168;2024-01-10T00:47:45;1.00;1.00;0.00
73825;PMS5003;64145;55.060;73.168;2024-01-10T00:50:11;0.00;0.00;0.00
73825;PMS5003;64145;55.060;73.168;2024-01-10T00:52:37;2.00;0.00;0.00
73825;PMS5003;64145;55.060;73.168;2024-01-10T00:55:02;0.00;0.00;0.00
73825;PMS5003;64145;55.060;73.168;2024-01-10T00:57:28;0.00;0.00;0.00
73825;PMS5003;64145;55.060;73.168;2024-01-10T00:59:54;0.00;0.00;0.00
73825;PMS5003;64145;55.060;73.168;2024-01-10T01:02:19;0.00;0.00;0.00
73825;PMS5003;64145;55.060;73.168;2024-01-10T01:04:45;0.00;0.00;0.00
73825;PMS5003;64145;55.060;73.168;2024-01-10T01:07:10;0.00;0.00;0.00
73825;PMS5003;64145;55.060;73.168;2024-01-10T01:09:36;0.50;0.50;0.00
73825;PMS5003;64145;55.060;73.168;2024-01-10T01:12:01;0.00;0.00;0.00
73825;PMS5003;64145;55.060;73.168;2024-01-10T01:14:27;0.00;0.00;0.00
73825;PMS5003;64145;55.060;73.168;2024-01-10T01:16:53;0.00;0.00;0.00
73825;PMS5003;64145;55.060;73.168;2024-01-10T01:19:19;0.00;0.00;0.00
73825;PMS5003;64145;55.060;73.168;2024-01-10T01:21:44;0.00;0.00;0.00
73825;PMS5003;64145;55.060;73.168;2024-01-10T01:24:10;2.00;1.00;0.00
73825;PMS5003;64145;55.060;73.168;2024-01-10T01:26:36;0.00;0.00;0.00
73825;PMS5003;64145;55.060;73.168;2024-01-10T01:29:02;1.00;1.00;0.00
73825;PMS5003;64145;55.060;73.168;2024-01-10T01:31:27;0.00;0.00;0.00
73825;PMS5003;64145;55.060;73.168;2024-01-10T01:33:53;0.00;0.00;0.00
73825;PMS5003;64145;55.060;73.168;2024-01-10T01:36:18;0.00;0.00;0.00
73825;PMS5003;64145;55.060;73.168;2024-01-10T01:38:44;0.00;0.00;0.00
73825;PMS5003;64145;55.060;73.168;2024-01-10T01:41:10;0.00;0.00;0.00
73825;PMS5003;64145;55.060;73.168;2024-01-10T01:43:39;0.00;0.00;0.00
73825;PMS5003;64145;55.060;73.168;2024-01-10T01:46:04;0.00;0.00;0.00
73825;PMS5003;64145;55.060;73.168;2024-01-10T01:48:30;1.00;0.00;0.00
73825;PMS5003;64145;55.060;73.168;2024-01-10T01:50:56;1.00;1.00;0.00
73825;PMS5003;64145;55.060;73.168;2024-01-10T01:53:23;1.00;1.00;0.00
73825;PMS5003;64145;55.060;73.168;2024-01-10T01:55:49;1.00;1.00;0.00
73825;PMS5003;64145;55.060;73.168;2024-01-10T01:58:15;0.00;0.00;0.00
73825;PMS5003;64145;55.060;73.168;2024-01-10T02:00:41;1.67;1.00;0.33
73825;PMS5003;64145;55.060;73.168;2024-01-10T02:03:10;2.00;2.00;0.00
73825;PMS5003;64145;55.060;73.168;2024-01-10T02:05:36;0.00;0.00;0.00
73825;PMS5003;64145;55.060;73.168;2024-01-10T02:08:01;0.00;0.00;0.00
73825;PMS5003;64145;55.060;73.168;2024-01-10T02:10:31;1.00;1.00;0.00
73825;PMS5003;64145;55.060;73.168;2024-01-10T02:12:57;1.00;1.00;0.00
73825;PMS5003;64145;55.060;73.168;2024-01-10T02:15:23;1.00;1.00;0.00
73825;PMS5003;64145;55.060;73.168;2024-01-10T02:17:49;0.00;0.00;0.00
73825;PMS5003;64145;55.060;73.168;2024-01-10T02:20:15;0.00;0.00;0.00
73825;PMS5003;64145;55.060;73.168;2024-01-10T02:22:44;1.00;0.00;0.00
73825;PMS5003;64145;55.060;73.168;2024-01-10T02:25:13;1.00;1.00;0.00
73825;PMS5003;64145;55.060;73.168;2024-01-10T02:27:39;0.50;0.50;0.00
73825;PMS5003;64145;55.060;73.168;2024-01-10T02:30:06;0.00;0.00;0.00
73825;PMS5003;64145;55.060;73.168;2024-01-10T02:32:32;0.00;0.00;0.00
73825;PMS5003;64145;55.060;73.168;2024-01-10T02:34:58;1.00;1.00;0.00
73825;PMS5003;64145;55.060;73.168;2024-01-10T02:37:23;1.00;1.00;0.00
73825;PMS5003;64145;55.060;73.168;2024-01-10T02:39:49;1.50;0.50;0.00
73825;PMS5003;64145;55.060;73.168;2024-01-10T02:42:15;1.00;1.00;0.00
73825;PMS5003;64145;55.060;73.168;2024-01-10T02:44:40;0.00;0.00;0.00
73825;PMS5003;64145;55.060;73.168;2024-01-10T02:47:06;7.00;6.00;3.00
73825;PMS5003;64145;55.060;73.168;2024-01-10T02:49:32;3.00;2.00;0.00
73825;PMS5003;64145;55.060;73.168;2024-01-10T02:51:58;0.00;0.00;0.00
73825;PMS5003;64145;55.060;73.168;2024-01-10T02:54:23;0.00;0.00;0.00
73825;PMS5003;64145;55.060;73.168;2024-01-10T02:56:49;1.00;0.50;0.00
73825;PMS5003;64145;55.060;73.168;2024-01-10T02:59:14;3.50;3.00;1.00
73825;PMS5003;64145;55.060;73.168;2024-01-10T03:01:40;6.50;6.00;3.00
73825;PMS5003;64145;55.060;73.168;2024-01-10T03:04:06;1.00;1.00;0.00
73825;PMS5003;64145;55.060;73.168;2024-01-10T03:06:31;2.00;2.00;1.00
73825;PMS5003;64145;55.060;73.168;2024-01-10T03:08:57;0.00;0.00;0.00
73825;PMS5003;64145;55.060;73.168;2024-01-10T03:11:22;0.00;0.00;0.00
73825;PMS5003;64145;55.060;73.168;2024-01-10T03:13:49;3.00;2.50;0.00
73825;PMS5003;64145;55.060;73.168;2024-01-10T03:16:15;3.00;3.00;0.00
73825;PMS5003;64145;55.060;73.168;2024-01-10T03:18:41;5.00;5.00;2.00
73825;PMS5003;64145;55.060;73.168;2024-01-10T03:21:06;1.00;1.00;0.00
73825;PMS5003;64145;55.060;73.168;2024-01-10T03:23:32;1.50;1.50;0.00
73825;PMS5003;64145;55.060;73.168;2024-01-10T03:25:58;3.00;2.00;0.00
73825;PMS5003;64145;55.060;73.168;2024-01-10T03:28:23;0.00;0.00;0.00
73825;PMS5003;64145;55.060;73.168;2024-01-10T03:30:49;4.50;3.50;1.50
73825;PMS5003;64145;55.060;73.168;2024-01-10T03:33:15;6.50;4.50;1.00
73825;PMS5003;64145;55.060;73.168;2024-01-10T03:35:41;2.00;2.00;0.00
73825;PMS5003;64145;55.060;73.168;2024-01-10T03:38:07;0.00;0.00;0.00
73825;PMS5003;64145;55.060;73.168;2024-01-10T03:40:32;0.00;0.00;0.00
73825;PMS5003;64145;55.060;73.168;2024-01-10T03:42:58;3.00;2.00;1.00
73825;PMS5003;64145;55.060;73.168;2024-01-10T03:45:23;1.50;1.50;0.00
73825;PMS5003;64145;55.060;73.168;2024-01-10T03:47:49;0.00;0.00;0.00
73825;PMS5003;64145;55.060;73.168;2024-01-10T03:50:19;0.67;0.67;0.00
73825;PMS5003;64145;55.060;73.168;2024-01-10T03:52:45;1.67;1.67;0.00
73825;PMS5003;64145;55.060;73.168;2024-01-10T03:55:14;4.33;3.00;1.00
73825;PMS5003;64145;55.060;73.168;2024-01-10T03:57:40;3.00;2.67;0.67
73825;PMS5003;64145;55.060;73.168;2024-01-10T04:00:06;13.33;11.00;5.67
73825;PMS5003;64145;55.060;73.168;2024-01-10T04:02:32;19.00;16.00;9.00
73825;PMS5003;64145;55.060;73.168;2024-01-10T04:04:58;9.00;7.50;3.50
73825;PMS5003;64145;55.060;73.168;2024-01-10T04:07:23;1.00;1.00;0.00
73825;PMS5003;64145;55.060;73.168;2024-01-10T04:09:53;0.50;0.50;0.00
73825;PMS5003;64145;55.060;73.168;2024-01-10T04:12:19;6.00;5.00;1.50
73825;PMS5003;64145;55.060;73.168;2024-01-10T04:14:44;5.00;4.00;1.00
73825;PMS5003;64145;55.060;73.168;2024-01-10T04:17:10;1.00;0.50;0.00
73825;PMS5003;64145;55.060;73.168;2024-01-10T04:19:36;5.50;5.00;2.00
73825;PMS5003;64145;55.060;73.168;2024-01-10T04:22:01;2.00;2.00;0.00
73825;PMS5003;64145;55.060;73.168;2024-01-10T04:24:27;28.33;22.00;11.33
73825;PMS5003;64145;55.060;73.168;2024-01-10T04:26:52;21.50;17.50;7.00
73825;PMS5003;64145;55.060;73.168;2024-01-10T04:29:18;10.00;9.00;2.00
73825;PMS5003;64145;55.060;73.168;2024-01-10T04:31:44;6.00;5.00;1.00
73825;PMS5003;64145;55.060;73.168;2024-01-10T04:34:09;1.67;1.33;0.00
73825;PMS5003;64145;55.060;73.168;2024-01-10T04:36:35;2.00;1.00;0.00
73825;PMS5003;64145;55.060;73.168;2024-01-10T04:39:00;0.00;0.00;0.00
73825;PMS5003;64145;55.060;73.168;2024-01-10T04:41:26;2.00;2.00;0.00
73825;PMS5003;64145;55.060;73.168;2024-01-10T04:43:52;3.00;2.00;1.00
73825;PMS5003;64145;55.060;73.168;2024-01-10T04:46:17;2.00;2.00;0.00
73825;PMS5003;64145;55.060;73.168;2024-01-10T04:48:43;1.00;1.00;0.00
73825;PMS5003;64145;55.060;73.168;2024-01-10T04:51:08;0.00;0.00;0.00
73825;PMS5003;64145;55.060;73.168;2024-01-10T04:53:34;0.00;0.00;0.00
73825;PMS5003;64145;55.060;73.168;2024-01-10T04:56:00;0.00;0.00;0.00
73825;PMS5003;64145;55.060;73.168;2024-01-10T04:58:25;0.50;0.00;0.00
73825;PMS5003;64145;55.060;73.168;2024-01-10T05:00:52;0.00;0.00;0.00
73825;PMS5003;64145;55.060;73.168;2024-01-10T05:03:17;0.00;0.00;0.00
73825;PMS5003;64145;55.060;73.168;2024-01-10T05:05:48;0.00;0.00;0.00
73825;PMS5003;64145;55.060;73.168;2024-01-10T05:08:13;0.00;0.00;0.00
73825;PMS5003;64145;55.060;73.168;2024-01-10T05:10:39;0.00;0.00;0.00
73825;PMS5003;64145;55.060;73.168;2024-01-10T05:13:05;0.50;0.00;0.00
73825;PMS5003;64145;55.060;73.168;2024-01-10T05:15:30;1.00;1.00;0.00
73825;PMS5003;64145;55.060;73.168;2024-01-10T05:17:56;2.00;2.00;0.00
73825;PMS5003;64145;55.060;73.168;2024-01-10T05:20:21;0.00;0.00;0.00
73825;PMS5003;64145;55.060;73.168;2024-01-10T05:22:47;0.00;0.00;0.00
73825;PMS5003;64145;55.060;73.168;2024-01-10T05:25:13;1.50;1.00;0.00
73825;PMS5003;64145;55.060;73.168;2024-01-10T05:27:39;2.00;1.00;0.00
73825;PMS5003;64145;55.060;73.168;2024-01-10T05:30:04;1.00;1.00;0.00
73825;PMS5003;64145;55.060;73.168;2024-01-10T05:32:30;2.00;2.00;0.00
73825;PMS5003;64145;55.060;73.168;2024-01-10T05:34:56;0.00;0.00;0.00
73825;PMS5003;64145;55.060;73.168;2024-01-10T05:37:22;0.50;0.00;0.00
73825;PMS5003;64145;55.060;73.168;2024-01-10T05:39:47;0.00;0.00;0.00
73825;PMS5003;64145;55.060;73.168;2024-01-10T05:42:13;0.00;0.00;0.00
73825;PMS5003;64145;55.060;73.168;2024-01-10T05:44:39;3.00;2.50;0.00
73825;PMS5003;64145;55.060;73.168;2024-01-10T05:47:05;2.00;2.00;0.00
73825;PMS5003;64145;55.060;73.168;2024-01-10T05:49:31;1.00;0.00;0.00
73825;PMS5003;64145;55.060;73.168;2024-01-10T05:51:58;0.33;0.00;0.00
73825;PMS5003;64145;55.060;73.168;2024-01-10T05:54:23;1.00;1.00;0.00
73825;PMS5003;64145;55.060;73.168;2024-01-10T05:56:49;0.00;0.00;0.00
73825;PMS5003;64145;55.060;73.168;2024-01-10T05:59:15;0.00;0.00;0.00
73825;PMS5003;64145;55.060;73.168;2024-01-10T06:01:42;0.00;0.00;0.00
73825;PMS5003;64145;55.060;73.168;2024-01-10T06:04:07;0.00;0.00;0.00
73825;PMS5003;64145;55.060;73.168;2024-01-10T06:06:33;0.00;0.00;0.00
73825;PMS5003;64145;55.060;73.168;2024-01-10T06:08:59;0.00;0.00;0.00
73825;PMS5003;64145;55.060;73.168;2024-01-10T06:11:25;0.00;0.00;0.00
73825;PMS5003;64145;55.060;73.168;2024-01-10T06:13:51;0.00;0.00;0.00
73825;PMS5003;64145;55.060;73.168;2024-01-10T06:16:16;1.00;1.00;0.00
73825;PMS5003;64145;55.060;73.168;2024-01-10T06:18:42;1.00;0.00;0.00
73825;PMS5003;64145;55.060;73.168;2024-01-10T06:21:08;0.50;0.00;0.00
73825;PMS5003;64145;55.060;73.168;2024-01-10T06:23:33;0.00;0.00;0.00
73825;PMS5003;64145;55.060;73.168;2024-01-10T06:25:59;1.00;1.00;0.00
73825;PMS5003;64145;55.060;73.168;2024-01-10T06:28:25;0.00;0.00;0.00
73825;PMS5003;64145;55.060;73.168;2024-01-10T06:30:50;0.00;0.00;0.00
73825;PMS5003;64145;55.060;73.168;2024-01-10T06:33:16;0.00;0.00;0.00
73825;PMS5003;64145;55.060;73.168;2024-01-10T06:35:42;0.00;0.00;0.00
73825;PMS5003;64145;55.060;73.168;2024-01-10T06:38:10;1.00;1.00;0.00
73825;PMS5003;64145;55.060;73.168;2024-01-10T06:40:36;0.00;0.00;0.00
73825;PMS5003;64145;55.060;73.168;2024-01-10T06:43:04;0.00;0.00;0.00
73825;PMS5003;64145;55.060;73.168;2024-01-10T06:45:30;0.50;0.00;0.00
73825;PMS5003;64145;55.060;73.168;2024-01-10T06:47:55;0.00;0.00;0.00
73825;PMS5003;64145;55.060;73.168;2024-01-10T06:50:21;0.00;0.00;0.00
73825;PMS5003;64145;55.060;73.168;2024-01-10T06:52:48;0.00;0.00;0.00
73825;PMS5003;64145;55.060;73.168;2024-01-10T06:55:13;0.00;0.00;0.00
73825;PMS5003;64145;55.060;73.168;2024-01-10T06:57:39;0.00;0.00;0.00
73825;PMS5003;64145;55.060;73.168;2024-01-10T07:00:05;1.00;1.00;0.00
73825;PMS5003;64145;55.060;73.168;2024-01-10T07:02:32;0.00;0.00;0.00
73825;PMS5003;64145;55.060;73.168;2024-01-10T07:05:01;0.00;0.00;0.00
73825;PMS5003;64145;55.060;73.168;2024-01-10T07:07:26;0.00;0.00;0.00
73825;PMS5003;64145;55.060;73.168;2024-01-10T07:09:52;0.00;0.00;0.00
73825;PMS5003;64145;55.060;73.168;2024-01-10T07:12:29;0.00;0.00;0.00
73825;PMS5003;64145;55.060;73.168;2024-01-10T07:14:55;0.00;0.00;0.00
73825;PMS5003;64145;55.060;73.168;2024-01-10T07:17:21;1.00;0.50;0.00
73825;PMS5003;64145;55.060;73.168;2024-01-10T07:19:48;1.00;0.00;0.00
73825;PMS5003;64145;55.060;73.168;2024-01-10T07:22:13;0.00;0.00;0.00
73825;PMS5003;64145;55.060;73.168;2024-01-10T07:24:39;0.00;0.00;0.00
73825;PMS5003;64145;55.060;73.168;2024-01-10T07:27:05;0.00;0.00;0.00
73825;PMS5003;64145;55.060;73.168;2024-01-10T07:29:32;0.00;0.00;0.00
73825;PMS5003;64145;55.060;73.168;2024-01-10T07:31:57;1.00;0.33;0.00
73825;PMS5003;64145;55.060;73.168;2024-01-10T07:34:23;0.00;0.00;0.00
73825;PMS5003;64145;55.060;73.168;2024-01-10T07:36:48;0.00;0.00;0.00
73825;PMS5003;64145;55.060;73.168;2024-01-10T07:39:14;0.00;0.00;0.00
73825;PMS5003;64145;55.060;73.168;2024-01-10T07:41:46;0.00;0.00;0.00
73825;PMS5003;64145;55.060;73.168;2024-01-10T07:44:11;0.00;0.00;0.00
73825;PMS5003;64145;55.060;73.168;2024-01-10T07:46:43;0.00;0.00;0.00
73825;PMS5003;64145;55.060;73.168;2024-01-10T07:49:09;0.00;0.00;0.00
73825;PMS5003;64145;55.060;73.168;2024-01-10T07:51:34;0.00;0.00;0.00
73825;PMS5003;64145;55.060;73.168;2024-01-10T07:54:00;0.00;0.00;0.00
73825;PMS5003;64145;55.060;73.168;2024-01-10T07:56:26;0.00;0.00;0.00
73825;PMS5003;64145;55.060;73.168;2024-01-10T07:58:51;1.00;1.00;0.00
73825;PMS5003;64145;55.060;73.168;2024-01-10T08:01:17;1.00;1.00;0.00
73825;PMS5003;64145;55.060;73.168;2024-01-10T08:03:43;0.00;0.00;0.00
73825;PMS5003;64145;55.060;73.168;2024-01-10T08:06:08;0.00;0.00;0.00
73825;PMS5003;64145;55.060;73.168;2024-01-10T08:08:35;0.00;0.00;0.00
73825;PMS5003;64145;55.060;73.168;2024-01-10T08:11:01;0.00;0.00;0.00
73825;PMS5003;64145;55.060;73.168;2024-01-10T08:13:27;1.00;0.50;0.00
73825;PMS5003;64145;55.060;73.168;2024-01-10T08:15:53;2.00;1.00;0.00
73825;PMS5003;64145;55.060;73.168;2024-01-10T08:18:19;0.00;0.00;0.00
73825;PMS5003;64145;55.060;73.168;2024-01-10T08:20:49;1.00;0.00;0.00
73825;PMS5003;64145;55.060;73.168;2024-01-10T08:23:15;0.00;0.00;0.00
73825;PMS5003;64145;55.060;73.168;2024-01-10T08:25:40;0.00;0.00;0.00
73825;PMS5003;64145;55.060;73.168;2024-01-10T08:28:09;0.00;0.00;0.00
73825;PMS5003;64145;55.060;73.168;2024-01-10T08:30:35;0.00;0.00;0.00
73825;PMS5003;64145;55.060;73.168;2024-01-10T08:33:08;0.00;0.00;0.00
73825;PMS5003;64145;55.060;73.168;2024-01-10T08:35:34;0.00;0.00;0.00
73825;PMS5003;64145;55.060;73.168;2024-01-10T08:37:59;1.00;0.00;0.00
73825;PMS5003;64145;55.060;73.168;2024-01-10T08:40:25;0.00;0.00;0.00
73825;PMS5003;64145;55.060;73.168;2024-01-10T08:42:56;0.00;0.00;0.00
73825;PMS5003;64145;55.060;73.168;2024-01-10T08:45:21;0.00;0.00;0.00
73825;PMS5003;64145;55.060;73.168;2024-01-10T08:47:47;0.00;0.00;0.00
73825;PMS5003;64145;55.060;73.168;2024-01-10T08:50:12;0.00;0.00;0.00
73825;PMS5003;64145;55.060;73.168;2024-01-10T08:52:38;0.00;0.00;0.00
73825;PMS5003;64145;55.060;73.168;2024-01-10T08:55:05;0.00;0.00;0.00
73825;PMS5003;64145;55.060;73.168;2024-01-10T08:57:31;0.00;0.00;0.00
73825;PMS5003;64145;55.060;73.168;2024-01-10T08:59:56;0.00;0.00;0.00
73825;PMS5003;64145;55.060;73.168;2024-01-10T09:02:22;1.00;0.00;0.00
73825;PMS5003;64145;55.060;73.168;2024-01-10T09:04:49;0.00;0.00;0.00
73825;PMS5003;64145;55.060;73.168;2024-01-10T09:07:14;0.00;0.00;0.00
73825;PMS5003;64145;55.060;73.168;2024-01-10T09:09:57;0.00;0.00;0.00
73825;PMS5003;64145;55.060;73.168;2024-01-10T09:12:23;0.00;0.00;0.00
73825;PMS5003;64145;55.060;73.168;2024-01-10T09:14:55;1.50;1.00;0.00
73825;PMS5003;64145;55.060;73.168;2024-01-10T09:17:21;13.33;12.67;7.67
73825;PMS5003;64145;55.060;73.168;2024-01-10T09:19:46;7.00;6.50;3.00
73825;PMS5003;64145;55.060;73.168;2024-01-10T09:22:12;5.00;4.50;1.50
73825;PMS5003;64145;55.060;73.168;2024-01-10T09:24:39;0.00;0.00;0.00
73825;PMS5003;64145;55.060;73.168;2024-01-10T09:27:04;0.00;0.00;0.00
73825;PMS5003;64145;55.060;73.168;2024-01-10T09:29:30;0.00;0.00;0.00
73825;PMS5003;64145;55.060;73.168;2024-01-10T09:31:56;0.50;0.00;0.00
73825;PMS5003;64145;55.060;73.168;2024-01-10T09:34:22;0.00;0.00;0.00
73825;PMS5003;64145;55.060;73.168;2024-01-10T09:36:48;0.00;0.00;0.00
73825;PMS5003;64145;55.060;73.168;2024-01-10T09:39:13;0.00;0.00;0.00
73825;PMS5003;64145;55.060;73.168;2024-01-10T09:41:40;0.00;0.00;0.00
73825;PMS5003;64145;55.060;73.168;2024-01-10T09:44:08;0.00;0.00;0.00
73825;PMS5003;64145;55.060;73.168;2024-01-10T09:46:34;0.00;0.00;0.00
73825;PMS5003;64145;55.060;73.168;2024-01-10T09:49:03;0.00;0.00;0.00
73825;PMS5003;64145;55.060;73.168;2024-01-10T09:51:29;0.00;0.00;0.00
73825;PMS5003;64145;55.060;73.168;2024-01-10T09:53:55;1.00;1.00;0.00
73825;PMS5003;64145;55.060;73.168;2024-01-10T09:56:21;1.00;0.00;0.00
73825;PMS5003;64145;55.060;73.168;2024-01-10T09:58:47;0.00;0.00;0.00
73825;PMS5003;64145;55.060;73.168;2024-01-10T10:01:13;0.00;0.00;0.00
73825;PMS5003;64145;55.060;73.168;2024-01-10T10:03:40;0.00;0.00;0.00
73825;PMS5003;64145;55.060;73.168;2024-01-10T10:06:07;3.00;3.00;1.67
73825;PMS5003;64145;55.060;73.168;2024-01-10T10:08:33;0.00;0.00;0.00
73825;PMS5003;64145;55.060;73.168;2024-01-10T10:10:59;2.00;1.50;1.50
73825;PMS5003;64145;55.060;73.168;2024-01-10T10:13:28;2.50;2.50;1.00
73825;PMS5003;64145;55.060;73.168;2024-01-10T10:16:00;5.00;3.50;1.00
73825;PMS5003;64145;55.060;73.168;2024-01-10T10:18:27;4.00;3.00;1.00
73825;PMS5003;64145;55.060;73.168;2024-01-10T10:24:00;2.00;2.00;0.00
73825;PMS5003;64145;55.060;73.168;2024-01-10T10:26:29;0.00;0.00;0.00
73825;PMS5003;64145;55.060;73.168;2024-01-10T10:28:57;0.00;0.00;0.00
73825;PMS5003;64145;55.060;73.168;2024-01-10T10:31:23;0.00;0.00;0.00
73825;PMS5003;64145;55.060;73.168;2024-01-10T10:33:49;0.00;0.00;0.00
73825;PMS5003;64145;55.060;73.168;2024-01-10T10:36:18;0.00;0.00;0.00
73825;PMS5003;64145;55.060;73.168;2024-01-10T10:38:44;0.00;0.00;0.00
73825;PMS5003;64145;55.060;73.168;2024-01-10T10:41:09;0.00;0.00;0.00
73825;PMS5003;64145;55.060;73.168;2024-01-10T10:43:39;0.00;0.00;0.00
73825;PMS5003;64145;55.060;73.168;2024-01-10T10:46:05;0.00;0.00;0.00
73825;PMS5003;64145;55.060;73.168;2024-01-10T10:48:35;0.00;0.00;0.00
73825;PMS5003;64145;55.060;73.168;2024-01-10T10:51:08;0.00;0.00;0.00
73825;PMS5003;64145;55.060;73.168;2024-01-10T10:53:35;0.00;0.00;0.00
73825;PMS5003;64145;55.060;73.168;2024-01-10T10:56:04;0.00;0.00;0.00
73825;PMS5003;64145;55.060;73.168;2024-01-10T10:58:41;2.00;2.00;1.00
73825;PMS5003;64145;55.060;73.168;2024-01-10T11:01:07;1.00;1.00;0.00
73825;PMS5003;64145;55.060;73.168;2024-01-10T11:03:34;0.00;0.00;0.00
73825;PMS5003;64145;55.060;73.168;2024-01-10T11:06:00;0.00;0.00;0.00
73825;PMS5003;64145;55.060;73.168;2024-01-10T11:08:26;0.00;0.00;0.00
73825;PMS5003;64145;55.060;73.168;2024-01-10T11:10:52;0.00;0.00;0.00
73825;PMS5003;64145;55.060;73.168;2024-01-10T11:18:18;0.00;0.00;0.00
73825;PMS5003;64145;55.060;73.168;2024-01-10T11:21:28;0.00;0.00;0.00
73825;PMS5003;64145;55.060;73.168;2024-01-10T11:23:43;0.00;0.00;0.00
73825;PMS5003;64145;55.060;73.168;2024-01-10T11:26:10;0.00;0.00;0.00
73825;PMS5003;64145;55.060;73.168;2024-01-10T11:28:36;0.00;0.00;0.00
73825;PMS5003;64145;55.060;73.168;2024-01-10T11:31:03;0.00;0.00;0.00
73825;PMS5003;64145;55.060;73.168;2024-01-10T11:33:32;0.00;0.00;0.00
73825;PMS5003;64145;55.060;73.168;2024-01-10T11:36:08;0.00;0.00;0.00
73825;PMS5003;64145;55.060;73.168;2024-01-10T11:38:41;0.00;0.00;0.00
73825;PMS5003;64145;55.060;73.168;2024-01-10T11:41:06;0.00;0.00;0.00
73825;PMS5003;64145;55.060;73.168;2024-01-10T11:43:33;0.00;0.00;0.00
73825;PMS5003;64145;55.060;73.168;2024-01-10T11:45:59;0.00;0.00;0.00
73825;PMS5003;64145;55.060;73.168;2024-01-10T11:48:26;0.00;0.00;0.00
73825;PMS5003;64145;55.060;73.168;2024-01-10T11:50:53;0.00;0.00;0.00
73825;PMS5003;64145;55.060;73.168;2024-01-10T11:56:08;0.00;0.00;0.00
73825;PMS5003;64145;55.060;73.168;2024-01-10T11:58:51;0.00;0.00;0.00
73825;PMS5003;64145;55.060;73.168;2024-01-10T12:01:17;0.00;0.00;0.00
73825;PMS5003;64145;55.060;73.168;2024-01-10T12:03:43;0.00;0.00;0.00
73825;PMS5003;64145;55.060;73.168;2024-01-10T12:06:10;0.00;0.00;0.00
73825;PMS5003;64145;55.060;73.168;2024-01-10T12:08:56;0.00;0.00;0.00
73825;PMS5003;64145;55.060;73.168;2024-01-10T12:11:22;0.00;0.00;0.00
73825;PMS5003;64145;55.060;73.168;2024-01-10T12:13:48;0.00;0.00;0.00
73825;PMS5003;64145;55.060;73.168;2024-01-10T12:16:14;0.00;0.00;0.00
73825;PMS5003;64145;55.060;73.168;2024-01-10T12:18:40;0.00;0.00;0.00
73825;PMS5003;64145;55.060;73.168;2024-01-10T12:21:12;0.00;0.00;0.00
73825;PMS5003;64145;55.060;73.168;2024-01-10T12:23:37;0.00;0.00;0.00
73825;PMS5003;64145;55.060;73.168;2024-01-10T12:26:08;0.00;0.00;0.00
73825;PMS5003;64145;55.060;73.168;2024-01-10T12:28:55;0.00;0.00;0.00
73825;PMS5003;64145;55.060;73.168;2024-01-10T12:31:21;0.00;0.00;0.00
73825;PMS5003;64145;55.060;73.168;2024-01-10T12:33:51;0.00;0.00;0.00
73825;PMS5003;64145;55.060;73.168;2024-01-10T12:36:30;0.00;0.00;0.00
73825;PMS5003;64145;55.060;73.168;2024-01-10T12:38:56;0.00;0.00;0.00
73825;PMS5003;64145;55.060;73.168;2024-01-10T12:41:22;0.00;0.00;0.00
73825;PMS5003;64145;55.060;73.168;2024-01-10T12:43:58;0.00;0.00;0.00
73825;PMS5003;64145;55.060;73.168;2024-01-10T12:46:25;0.00;0.00;0.00
73825;PMS5003;64145;55.060;73.168;2024-01-10T12:49:00;0.00;0.00;0.00
73825;PMS5003;64145;55.060;73.168;2024-01-10T12:51:26;0.00;0.00;0.00
73825;PMS5003;64145;55.060;73.168;2024-01-10T12:53:52;0.00;0.00;0.00
73825;PMS5003;64145;55.060;73.168;2024-01-10T12:56:18;0.00;0.00;0.00
73825;PMS5003;64145;55.060;73.168;2024-01-10T12:58:44;0.00;0.00;0.00
73825;PMS5003;64145;55.060;73.168;2024-01-10T13:01:10;0.00;0.00;0.00
73825;PMS5003;64145;55.060;73.168;2024-01-10T13:03:37;1.00;0.00;0.00
73825;PMS5003;64145;55.060;73.168;2024-01-10T13:06:03;0.00;0.00;0.00
73825;PMS5003;64145;55.060;73.168;2024-01-10T13:08:29;0.00;0.00;0.00
73825;PMS5003;64145;55.060;73.168;2024-01-10T13:10:54;0.00;0.00;0.00
73825;PMS5003;64145;55.060;73.168;2024-01-10T13:13:20;0.00;0.00;0.00
73825;PMS5003;64145;55.060;73.168;2024-01-10T13:15:48;0.00;0.00;0.00
73825;PMS5003;64145;55.060;73.168;2024-01-10T13:18:14;0.00;0.00;0.00
73825;PMS5003;64145;55.060;73.168;2024-01-10T13:20:41;0.00;0.00;0.00
73825;PMS5003;64145;55.060;73.168;2024-01-10T13:23:06;0.00;0.00;0.00
73825;PMS5003;64145;55.060;73.168;2024-01-10T13:25:47;0.00;0.00;0.00
73825;PMS5003;64145;55.060;73.168;2024-01-10T13:28:14;0.00;0.00;0.00
73825;PMS5003;64145;55.060;73.168;2024-01-10T13:30:40;0.00;0.00;0.00
73825;PMS5003;64145;55.060;73.168;2024-01-10T13:33:06;0.00;0.00;0.00
73825;PMS5003;64145;55.060;73.168;2024-01-10T13:35:32;0.00;0.00;0.00
73825;PMS5003;64145;55.060;73.168;2024-01-10T13:37:58;0.00;0.00;0.00
73825;PMS5003;64145;55.060;73.168;2024-01-10T13:40:24;0.00;0.00;0.00
73825;PMS5003;64145;55.060;73.168;2024-01-10T13:42:56;0.00;0.00;0.00
73825;PMS5003;64145;55.060;73.168;2024-01-10T13:45:22;0.00;0.00;0.00
73825;PMS5003;64145;55.060;73.168;2024-01-10T13:47:47;0.00;0.00;0.00
73825;PMS5003;64145;55.060;73.168;2024-01-10T13:50:16;0.00;0.00;0.00
73825;PMS5003;64145;55.060;73.168;2024-01-10T13:52:41;0.00;0.00;0.00
73825;PMS5003;64145;55.060;73.168;2024-01-10T13:55:09;0.00;0.00;0.00
73825;PMS5003;64145;55.060;73.168;2024-01-10T13:57:35;0.00;0.00;0.00
73825;PMS5003;64145;55.060;73.168;2024-01-10T14:00:01;0.00;0.00;0.00
73825;PMS5003;64145;55.060;73.168;2024-01-10T14:02:45;0.00;0.00;0.00
73825;PMS5003;64145;55.060;73.168;2024-01-10T14:05:11;0.00;0.00;0.00
73825;PMS5003;64145;55.060;73.168;2024-01-10T14:07:36;0.00;0.00;0.00
73825;PMS5003;64145;55.060;73.168;2024-01-10T14:10:03;0.50;0.50;0.00
73825;PMS5003;64145;55.060;73.168;2024-01-10T14:12:28;0.00;0.00;0.00
73825;PMS5003;64145;55.060;73.168;2024-01-10T14:14:57;0.00;0.00;0.00
73825;PMS5003;64145;55.060;73.168;2024-01-10T14:17:28;0.00;0.00;0.00